Time;durP1;ratioP1;P1;durP2;ratioP2;P2;SDS_P1;SDS_P2;PMS_P1;PMS_P2;Temp;Humidity;BMP_temperature;BMP_pressure;BME280_temperature;BME280_humidity;BME280_pressure;Samples;Min_cycle;Max_cycle;Signal;HPM_P1;HPM_P2
2021/09/26 00:00:07;;;;;;;5.80;4.18;;;;;;;;;;5054962;28;20036;-40
2021/09/26 00:02:37;;;;;;;9.85;4.72;;;;;;;;;;5054835;28;20052;-40
2021/09/26 00:05:03;;;;;;;8.30;5.40;;;;;;;;;;5054749;28;20030;-40
2021/09/26 00:07:28;;;;;;;6.65;4.57;;;;;;;;;;5054613;28;20021;-41
2021/09/26 00:09:54;;;;;;;7.65;4.70;;;;;;;;;;5054319;28;20563;-40
2021/09/26 00:12:19;;;;;;;6.20;4.28;;;;;;;;;;5054723;28;20036;-40
2021/09/26 00:14:45;;;;;;;5.60;4.43;;;;;;;;;;5054894;28;20052;-41
2021/09/26 00:17:10;;;;;;;8.48;5.45;;;;;;;;;;5054712;28;20024;-41
2021/09/26 00:19:36;;;;;;;4.85;3.97;;;;;;;;;;5052993;28;20037;-41
2021/09/26 00:22:01;;;;;;;10.02;4.82;;;;;;;;;;5054511;28;20013;-41
2021/09/26 00:24:27;;;;;;;4.68;4.10;;;;;;;;;;5054208;28;20025;-41
2021/09/26 00:26:52;;;;;;;5.95;4.78;;;;;;;;;;5054323;28;20043;-40
2021/09/26 00:29:17;;;;;;;5.15;4.22;;;;;;;;;;5054182;28;20041;-41
2021/09/26 00:31:43;;;;;;;11.15;4.50;;;;;;;;;;5054006;28;20032;-41
2021/09/26 00:34:08;;;;;;;6.88;4.10;;;;;;;;;;5054225;28;20063;-40
2021/09/26 00:36:34;;;;;;;5.90;4.47;;;;;;;;;;5054071;28;20028;-40
2021/09/26 00:38:59;;;;;;;6.93;4.82;;;;;;;;;;5054309;28;20108;-41
2021/09/26 00:41:25;;;;;;;5.32;4.18;;;;;;;;;;5054225;28;20357;-44
2021/09/26 00:43:50;;;;;;;5.63;4.53;;;;;;;;;;5053948;28;20033;-40
2021/09/26 00:46:15;;;;;;;8.73;3.97;;;;;;;;;;5053884;28;20017;-41
2021/09/26 00:48:41;;;;;;;6.70;4.07;;;;;;;;;;5054202;28;20021;-41
2021/09/26 00:51:15;;;;;;;5.43;4.40;;;;;;;;;;5053732;28;20074;-41
2021/09/26 00:53:41;;;;;;;6.57;4.65;;;;;;;;;;5053747;28;20033;-41
2021/09/26 00:56:07;;;;;;;6.50;4.40;;;;;;;;;;5054021;28;20025;-41
2021/09/26 00:58:33;;;;;;;7.78;5.07;;;;;;;;;;5053913;28;20389;-41
2021/09/26 01:00:58;;;;;;;7.80;4.82;;;;;;;;;;5053883;28;20025;-40
2021/09/26 01:03:24;;;;;;;8.77;4.30;;;;;;;;;;5053547;28;20100;-41
2021/09/26 01:05:55;;;;;;;8.93;4.88;;;;;;;;;;5053756;28;20021;-40
2021/09/26 01:08:35;;;;;;;5.80;4.68;;;;;;;;;;5053484;28;20025;-41
2021/09/26 01:11:03;;;;;;;7.03;5.05;;;;;;;;;;5053697;28;20395;-40
2021/09/26 01:13:37;;;;;;;7.57;4.85;;;;;;;;;;5053248;28;20067;-41
2021/09/26 01:16:35;;;;;;;7.70;4.47;;;;;;;;;;5053708;28;20064;-41
2021/09/26 01:19:06;;;;;;;9.07;4.57;;;;;;;;;;5041176;28;20048;-41
2021/09/26 01:21:50;;;;;;;6.53;4.43;;;;;;;;;;5053070;28;20025;-40
2021/09/26 01:24:34;;;;;;;4.45;3.88;;;;;;;;;;5053409;28;20029;-41
2021/09/26 01:27:08;;;;;;;6.78;4.82;;;;;;;;;;5053430;28;20044;-40
2021/09/26 01:29:52;;;;;;;5.88;4.15;;;;;;;;;;5051672;28;20037;-40
2021/09/26 01:32:20;;;;;;;5.63;4.30;;;;;;;;;;5052964;28;20048;-40
2021/09/26 01:34:48;;;;;;;5.72;4.07;;;;;;;;;;5052985;28;20483;-41
2021/09/26 01:37:33;;;;;;;5.90;4.35;;;;;;;;;;5052908;28;20548;-41
2021/09/26 01:40:04;;;;;;;5.82;4.55;;;;;;;;;;5052887;28;20029;-40
2021/09/26 01:42:34;;;;;;;6.20;4.97;;;;;;;;;;5052687;28;20044;-40
2021/09/26 01:45:09;;;;;;;11.40;4.65;;;;;;;;;;5068276;28;20025;-40
2021/09/26 01:47:37;;;;;;;9.25;4.15;;;;;;;;;;5052813;28;20025;-40
2021/09/26 01:50:05;;;;;;;8.45;4.13;;;;;;;;;;5052846;28;20036;-40
2021/09/26 01:52:32;;;;;;;5.00;4.43;;;;;;;;;;5068228;28;20028;-40
2021/09/26 01:54:58;;;;;;;6.50;5.00;;;;;;;;;;5052732;28;20017;-41
2021/09/26 01:57:24;;;;;;;5.90;4.60;;;;;;;;;;5052802;28;20114;-40
2021/09/26 01:59:51;;;;;;;5.80;4.88;;;;;;;;;;5052883;28;20024;-40
2021/09/26 02:02:23;;;;;;;4.75;4.15;;;;;;;;;;5052464;28;20082;-41
2021/09/26 02:04:49;;;;;;;5.13;3.90;;;;;;;;;;5052857;28;20052;-40
2021/09/26 02:07:15;;;;;;;7.97;4.65;;;;;;;;;;5052413;28;20040;-41
2021/09/26 02:09:43;;;;;;;7.68;4.20;;;;;;;;;;5052262;28;20387;-40
2021/09/26 02:12:08;;;;;;;7.88;4.55;;;;;;;;;;5052360;28;20029;-40
2021/09/26 02:14:35;;;;;;;8.85;4.90;;;;;;;;;;5052383;28;20550;-40
2021/09/26 02:17:00;;;;;;;5.93;4.95;;;;;;;;;;5052059;28;20364;-41
2021/09/26 02:19:26;;;;;;;8.18;5.22;;;;;;;;;;5052187;28;20103;-41
2021/09/26 02:21:51;;;;;;;9.57;5.30;;;;;;;;;;5052675;28;20589;-41
2021/09/26 02:24:17;;;;;;;10.82;5.13;;;;;;;;;;5052238;28;20098;-41
2021/09/26 02:26:42;;;;;;;9.10;4.50;;;;;;;;;;5052532;28;20013;-41
2021/09/26 02:29:08;;;;;;;5.75;4.50;;;;;;;;;;5052221;28;20029;-41
2021/09/26 02:31:36;;;;;;;9.23;5.15;;;;;;;;;;5051957;28;20171;-40
2021/09/26 02:34:01;;;;;;;7.35;4.85;;;;;;;;;;5052505;28;20029;-40
2021/09/26 02:36:27;;;;;;;7.47;4.95;;;;;;;;;;5052148;28;20024;-41
2021/09/26 02:38:52;;;;;;;5.65;3.95;;;;;;;;;;5052349;28;20104;-41
2021/09/26 02:41:17;;;;;;;8.85;4.47;;;;;;;;;;5051949;28;20053;-40
2021/09/26 02:43:45;;;;;;;8.95;4.90;;;;;;;;;;5052091;28;20029;-41
2021/09/26 02:46:20;;;;;;;12.32;5.00;;;;;;;;;;5052128;28;20059;-40
2021/09/26 02:48:46;;;;;;;7.55;4.82;;;;;;;;;;5052399;28;20028;-41
2021/09/26 02:51:11;;;;;;;7.10;4.80;;;;;;;;;;5052274;28;20028;-41
2021/09/26 02:53:37;;;;;;;7.15;4.75;;;;;;;;;;5067705;28;20033;-42
2021/09/26 02:56:03;;;;;;;8.77;5.63;;;;;;;;;;5051930;28;20028;-40
2021/09/26 02:58:28;;;;;;;8.38;4.65;;;;;;;;;;5051908;28;20037;-40
2021/09/26 03:00:54;;;;;;;5.20;4.47;;;;;;;;;;5052081;28;20063;-41
2021/09/26 03:03:22;;;;;;;6.13;4.68;;;;;;;;;;5052170;28;20025;-43
2021/09/26 03:05:48;;;;;;;5.97;4.60;;;;;;;;;;5051996;28;20025;-41
2021/09/26 03:08:14;;;;;;;7.93;4.75;;;;;;;;;;5051480;28;20033;-41
2021/09/26 03:10:40;;;;;;;8.20;4.60;;;;;;;;;;5051779;28;20048;-40
2021/09/26 03:13:06;;;;;;;5.93;4.80;;;;;;;;;;5051899;28;20036;-40
2021/09/26 03:15:32;;;;;;;5.97;4.93;;;;;;;;;;5051686;28;20013;-41
2021/09/26 03:17:57;;;;;;;7.65;4.40;;;;;;;;;;5051906;28;20033;-40
2021/09/26 03:20:23;;;;;;;7.97;4.30;;;;;;;;;;5051882;28;20021;-42
2021/09/26 03:22:50;;;;;;;7.45;4.97;;;;;;;;;;5051730;28;20515;-41
2021/09/26 03:25:15;;;;;;;5.97;4.22;;;;;;;;;;5051949;28;20025;-40
2021/09/26 03:27:41;;;;;;;8.20;5.43;;;;;;;;;;5051657;28;20036;-40
2021/09/26 03:30:07;;;;;;;6.43;4.53;;;;;;;;;;5053202;28;20017;-40
2021/09/26 03:32:32;;;;;;;6.43;4.15;;;;;;;;;;5055515;28;20064;-40
2021/09/26 03:34:58;;;;;;;6.30;4.72;;;;;;;;;;5055581;28;20375;-40
2021/09/26 03:37:23;;;;;;;6.65;4.82;;;;;;;;;;5055150;28;20059;-40
2021/09/26 03:39:51;;;;;;;7.93;5.53;;;;;;;;;;5055214;28;20067;-40
2021/09/26 03:42:17;;;;;;;7.90;4.82;;;;;;;;;;5055145;28;20629;-41
2021/09/26 03:44:42;;;;;;;6.85;4.20;;;;;;;;;;5055362;28;20021;-40
2021/09/26 03:47:07;;;;;;;6.32;4.70;;;;;;;;;;5055191;28;20055;-41
2021/09/26 03:49:33;;;;;;;7.40;4.63;;;;;;;;;;5054907;28;20471;-40
2021/09/26 03:51:58;;;;;;;5.88;4.53;;;;;;;;;;5054882;28;20087;-40
2021/09/26 03:54:24;;;;;;;11.10;5.22;;;;;;;;;;5054956;28;20028;-41
2021/09/26 03:56:49;;;;;;;6.22;3.97;;;;;;;;;;5054799;28;20434;-41
2021/09/26 03:59:15;;;;;;;5.82;4.95;;;;;;;;;;5054986;28;20017;-40
2021/09/26 04:01:41;;;;;;;13.90;4.72;;;;;;;;;;5054791;28;20122;-40
2021/09/26 04:04:07;;;;;;;6.97;4.40;;;;;;;;;;5054782;28;20056;-41
2021/09/26 04:06:33;;;;;;;5.72;4.22;;;;;;;;;;5054658;28;20468;-41
2021/09/26 04:08:59;;;;;;;6.13;4.35;;;;;;;;;;5054647;28;20052;-40
2021/09/26 04:11:24;;;;;;;6.38;4.45;;;;;;;;;;5053158;28;20044;-41
2021/09/26 04:13:50;;;;;;;6.18;4.43;;;;;;;;;;5054921;28;20052;-40
2021/09/26 04:16:15;;;;;;;6.32;4.63;;;;;;;;;;5054759;28;20373;-41
2021/09/26 04:18:40;;;;;;;6.75;4.70;;;;;;;;;;5054481;28;20068;-40
2021/09/26 04:21:06;;;;;;;6.55;4.50;;;;;;;;;;5069889;28;20029;-41
2021/09/26 04:23:32;;;;;;;5.80;4.57;;;;;;;;;;5054282;28;20024;-41
2021/09/26 04:25:57;;;;;;;5.65;4.55;;;;;;;;;;5054335;28;20029;-41
2021/09/26 04:28:23;;;;;;;7.40;5.28;;;;;;;;;;5054295;28;20020;-41
2021/09/26 04:30:48;;;;;;;7.57;5.20;;;;;;;;;;5052980;28;20045;-40
2021/09/26 04:33:14;;;;;;;7.07;5.30;;;;;;;;;;5054336;28;20418;-41
2021/09/26 04:35:39;;;;;;;6.88;5.10;;;;;;;;;;5054453;28;20475;-40
2021/09/26 04:38:05;;;;;;;6.97;4.82;;;;;;;;;;5054164;28;20376;-40
2021/09/26 04:40:30;;;;;;;6.90;4.90;;;;;;;;;;5053566;28;20029;-41
2021/09/26 04:42:55;;;;;;;7.70;5.53;;;;;;;;;;5054079;28;20021;-41
2021/09/26 04:45:21;;;;;;;6.28;4.80;;;;;;;;;;5054221;28;20383;-40
2021/09/26 04:47:46;;;;;;;7.13;5.10;;;;;;;;;;5054124;28;20107;-40
2021/09/26 04:50:12;;;;;;;6.53;4.90;;;;;;;;;;5053828;28;20489;-40
2021/09/26 04:52:37;;;;;;;6.53;4.50;;;;;;;;;;5053812;28;20024;-40
2021/09/26 04:55:04;;;;;;;8.48;5.28;;;;;;;;;;5053728;28;20031;-41
2021/09/26 04:57:29;;;;;;;7.47;4.32;;;;;;;;;;5053709;28;20024;-41
2021/09/26 04:59:55;;;;;;;5.97;5.05;;;;;;;;;;5053933;28;20067;-41
2021/09/26 05:02:20;;;;;;;7.90;5.63;;;;;;;;;;5053836;28;20516;-40
2021/09/26 05:04:46;;;;;;;7.13;4.47;;;;;;;;;;5053719;28;20380;-41
2021/09/26 05:07:11;;;;;;;7.03;4.72;;;;;;;;;;5053600;28;20454;-40
2021/09/26 05:09:37;;;;;;;6.95;5.40;;;;;;;;;;5053184;28;20068;-41
2021/09/26 05:12:02;;;;;;;5.80;4.85;;;;;;;;;;5053374;28;20052;-40
2021/09/26 05:14:28;;;;;;;6.57;4.32;;;;;;;;;;5053626;28;20029;-40
2021/09/26 05:16:53;;;;;;;6.95;4.53;;;;;;;;;;5053655;28;20448;-41
2021/09/26 05:19:18;;;;;;;6.18;4.53;;;;;;;;;;5053414;28;20494;-40
2021/09/26 05:21:44;;;;;;;4.93;4.28;;;;;;;;;;5051994;28;20017;-41
2021/09/26 05:24:09;;;;;;;5.70;4.45;;;;;;;;;;5053269;28;20039;-41
2021/09/26 05:26:35;;;;;;;5.15;4.00;;;;;;;;;;5053219;28;20086;-41
2021/09/26 05:29:02;;;;;;;5.75;4.40;;;;;;;;;;5053061;28;20029;-41
2021/09/26 05:31:28;;;;;;;5.43;4.20;;;;;;;;;;5051702;28;20439;-41
2021/09/26 05:33:53;;;;;;;5.90;4.05;;;;;;;;;;5053387;28;20110;-41
2021/09/26 05:36:19;;;;;;;4.85;4.38;;;;;;;;;;5052901;28;20025;-41
2021/09/26 05:38:44;;;;;;;5.80;4.25;;;;;;;;;;5052979;28;20040;-40
2021/09/26 05:41:09;;;;;;;5.53;4.18;;;;;;;;;;5052920;28;20017;-41
2021/09/26 05:43:35;;;;;;;4.75;4.03;;;;;;;;;;5053089;28;20029;-41
2021/09/26 05:46:00;;;;;;;4.60;3.90;;;;;;;;;;5052900;28;20444;-40
2021/09/26 05:48:26;;;;;;;5.70;4.05;;;;;;;;;;5052728;28;20025;-41
2021/09/26 05:50:52;;;;;;;5.97;4.50;;;;;;;;;;5052667;28;20100;-40
2021/09/26 05:53:20;;;;;;;9.43;5.07;;;;;;;;;;5051998;28;20090;-40
2021/09/26 05:55:45;;;;;;;5.93;4.50;;;;;;;;;;5052710;28;20090;-40
2021/09/26 05:58:11;;;;;;;6.30;4.93;;;;;;;;;;5052665;28;20472;-40
2021/09/26 06:00:36;;;;;;;5.28;4.50;;;;;;;;;;5052569;28;20063;-41
2021/09/26 06:03:02;;;;;;;5.88;4.85;;;;;;;;;;5052867;28;20021;-40
2021/09/26 06:05:27;;;;;;;5.70;4.22;;;;;;;;;;5052473;28;20481;-41
2021/09/26 06:07:53;;;;;;;5.78;4.10;;;;;;;;;;5052548;28;20032;-40
2021/09/26 06:10:18;;;;;;;10.85;4.63;;;;;;;;;;5052143;28;20048;-41
2021/09/26 06:12:45;;;;;;;5.20;4.13;;;;;;;;;;5052394;28;20423;-40
2021/09/26 06:15:11;;;;;;;4.60;3.55;;;;;;;;;;5052500;28;20029;-40
2021/09/26 06:17:36;;;;;;;8.68;4.15;;;;;;;;;;5052332;28;20037;-40
2021/09/26 06:20:02;;;;;;;4.57;4.00;;;;;;;;;;5052529;28;20021;-41
2021/09/26 06:22:27;;;;;;;6.50;4.10;;;;;;;;;;5052317;28;20411;-40
2021/09/26 06:24:56;;;;;;;5.80;4.18;;;;;;;;;;5051106;28;20066;-41
2021/09/26 06:27:21;;;;;;;6.15;4.20;;;;;;;;;;5052139;28;20464;-40
2021/09/26 06:29:47;;;;;;;5.55;3.70;;;;;;;;;;5052518;28;20074;-40
2021/09/26 06:32:12;;;;;;;7.35;3.97;;;;;;;;;;5052448;28;20515;-41
2021/09/26 06:34:38;;;;;;;4.30;3.83;;;;;;;;;;5052412;28;20379;-42
2021/09/26 06:37:05;;;;;;;6.82;4.60;;;;;;;;;;5052292;28;20403;-41
2021/09/26 06:39:30;;;;;;;5.90;3.88;;;;;;;;;;5052426;28;20390;-41
2021/09/26 06:41:56;;;;;;;6.15;4.07;;;;;;;;;;5052368;28;20108;-43
2021/09/26 06:44:21;;;;;;;9.90;5.32;;;;;;;;;;5052361;28;20602;-41
2021/09/26 06:46:47;;;;;;;6.72;4.97;;;;;;;;;;5052153;28;20509;-41
2021/09/26 06:49:12;;;;;;;6.90;5.97;;;;;;;;;;5052090;28;20017;-40
2021/09/26 06:51:38;;;;;;;6.75;5.55;;;;;;;;;;5052014;28;20076;-40
2021/09/26 06:54:03;;;;;;;7.13;5.43;;;;;;;;;;5052060;28;20444;-42
2021/09/26 06:56:29;;;;;;;10.77;6.13;;;;;;;;;;5051936;28;20059;-41
2021/09/26 06:58:54;;;;;;;10.73;5.05;;;;;;;;;;5067416;28;20071;-41
2021/09/26 07:01:20;;;;;;;9.50;4.95;;;;;;;;;;5052122;28;20040;-41
2021/09/26 07:03:45;;;;;;;8.48;5.00;;;;;;;;;;5053156;28;20009;-41
2021/09/26 07:06:11;;;;;;;7.20;5.00;;;;;;;;;;5055833;28;20530;-41
2021/09/26 07:08:36;;;;;;;9.82;5.35;;;;;;;;;;5055517;28;20052;-41
2021/09/26 07:11:02;;;;;;;11.48;5.35;;;;;;;;;;5071291;28;20062;-41
2021/09/26 07:13:28;;;;;;;5.47;4.82;;;;;;;;;;5055945;28;20533;-41
2021/09/26 07:15:53;;;;;;;12.18;5.38;;;;;;;;;;5054406;28;20041;-40
2021/09/26 07:18:19;;;;;;;11.20;6.10;;;;;;;;;;5055834;28;20025;-41
2021/09/26 07:20:44;;;;;;;7.28;4.95;;;;;;;;;;5055831;28;20490;-40
2021/09/26 07:23:10;;;;;;;8.88;4.78;;;;;;;;;;5055572;28;20427;-40
2021/09/26 07:25:35;;;;;;;10.90;5.05;;;;;;;;;;5055373;28;20036;-40
2021/09/26 07:28:01;;;;;;;8.65;5.60;;;;;;;;;;5055566;28;20087;-40
2021/09/26 07:30:27;;;;;;;11.25;5.15;;;;;;;;;;5055152;28;20479;-41
2021/09/26 07:32:52;;;;;;;12.48;5.45;;;;;;;;;;5055391;28;20016;-41
2021/09/26 07:35:18;;;;;;;10.18;5.18;;;;;;;;;;5055329;28;20025;-42
2021/09/26 07:37:43;;;;;;;8.77;4.97;;;;;;;;;;5055499;28;20024;-41
2021/09/26 07:40:09;;;;;;;10.48;4.38;;;;;;;;;;5055522;28;20021;-41
2021/09/26 07:42:34;;;;;;;9.35;5.00;;;;;;;;;;5055197;28;20047;-40
2021/09/26 07:45:03;;;;;;;9.02;4.47;;;;;;;;;;5055076;28;20029;-40
2021/09/26 07:47:32;;;;;;;7.95;5.25;;;;;;;;;;5055084;28;20021;-40
2021/09/26 07:49:57;;;;;;;5.72;4.47;;;;;;;;;;5054971;28;20391;-41
2021/09/26 07:52:23;;;;;;;6.43;4.53;;;;;;;;;;5054846;28;20025;-40
2021/09/26 07:54:50;;;;;;;5.47;3.83;;;;;;;;;;5055252;28;20017;-40
2021/09/26 07:57:16;;;;;;;9.65;5.20;;;;;;;;;;5055191;28;20028;-40
2021/09/26 07:59:41;;;;;;;11.38;5.35;;;;;;;;;;5054759;28;20461;-40
2021/09/26 08:02:07;;;;;;;5.70;4.25;;;;;;;;;;5054820;28;20021;-40
2021/09/26 08:04:33;;;;;;;5.53;4.13;;;;;;;;;;5054762;28;20025;-40
2021/09/26 08:06:58;;;;;;;5.47;3.80;;;;;;;;;;5054658;28;20108;-41
2021/09/26 08:09:24;;;;;;;6.40;4.28;;;;;;;;;;5054382;28;20107;-40
2021/09/26 08:11:49;;;;;;;6.22;3.97;;;;;;;;;;5054905;28;20036;-41
2021/09/26 08:14:15;;;;;;;10.55;4.40;;;;;;;;;;5054863;28;20086;-41
2021/09/26 08:16:40;;;;;;;6.75;5.40;;;;;;;;;;5054075;28;20116;-40
2021/09/26 08:19:06;;;;;;;8.32;4.45;;;;;;;;;;5054489;28;20040;-41
2021/09/26 08:21:31;;;;;;;7.10;4.30;;;;;;;;;;5054585;28;20052;-40
2021/09/26 08:23:57;;;;;;;8.48;4.65;;;;;;;;;;5054470;28;20456;-40
2021/09/26 08:26:23;;;;;;;6.28;4.70;;;;;;;;;;5054338;28;20028;-41
2021/09/26 08:28:48;;;;;;;6.75;4.95;;;;;;;;;;5054849;28;20032;-41
2021/09/26 08:31:14;;;;;;;5.85;4.75;;;;;;;;;;5054206;28;20029;-40
2021/09/26 08:33:39;;;;;;;7.35;4.50;;;;;;;;;;5054235;28;20112;-41
2021/09/26 08:36:05;;;;;;;7.60;4.75;;;;;;;;;;5054438;28;20452;-40
2021/09/26 08:38:30;;;;;;;8.65;5.30;;;;;;;;;;5054093;28;20372;-41
2021/09/26 08:40:56;;;;;;;7.65;5.53;;;;;;;;;;5054126;28;20364;-40
2021/09/26 08:43:22;;;;;;;7.47;5.60;;;;;;;;;;5054184;28;20048;-40
2021/09/26 08:45:48;;;;;;;5.53;4.95;;;;;;;;;;5054023;28;20487;-41
2021/09/26 08:48:14;;;;;;;8.52;5.45;;;;;;;;;;5053987;28;20082;-41
2021/09/26 08:50:39;;;;;;;5.55;4.25;;;;;;;;;;5053809;28;20108;-41
2021/09/26 08:53:06;;;;;;;8.60;4.07;;;;;;;;;;5053847;28;20036;-40
2021/09/26 08:55:32;;;;;;;5.20;3.88;;;;;;;;;;5053720;28;20017;-41
2021/09/26 08:57:58;;;;;;;5.30;4.25;;;;;;;;;;5053763;28;20423;-41
2021/09/26 09:00:25;;;;;;;6.95;4.72;;;;;;;;;;5053630;28;20032;-40
2021/09/26 09:02:50;;;;;;;7.22;4.10;;;;;;;;;;5053916;28;20123;-40
2021/09/26 09:05:28;;;;;;;4.82;3.92;;;;;;;;;;5052392;28;20113;-40
2021/09/26 09:08:02;;;;;;;7.57;4.63;;;;;;;;;;5053597;28;20025;-40
2021/09/26 09:10:48;;;;;;;8.23;4.03;;;;;;;;;;5053129;28;20106;-40
2021/09/26 09:13:17;;;;;;;8.80;3.95;;;;;;;;;;5053539;28;20630;-41
2021/09/26 09:15:50;;;;;;;3.70;3.20;;;;;;;;;;5053541;28;20028;-40
2021/09/26 09:18:16;;;;;;;4.25;3.45;;;;;;;;;;5053365;28;20100;-40
2021/09/26 09:20:41;;;;;;;4.53;3.15;;;;;;;;;;5053199;28;20051;-40
2021/09/26 09:23:15;;;;;;;7.40;3.70;;;;;;;;;;5053298;28;20051;-41
2021/09/26 09:25:40;;;;;;;4.03;3.50;;;;;;;;;;5053040;28;20033;-42
2021/09/26 09:28:08;;;;;;;10.48;4.72;;;;;;;;;;5052558;28;20013;-41
2021/09/26 09:30:36;;;;;;;7.03;4.00;;;;;;;;;;5052945;28;20036;-41
2021/09/26 09:33:02;;;;;;;3.50;3.20;;;;;;;;;;5053117;28;20021;-40
2021/09/26 09:35:30;;;;;;;5.18;3.42;;;;;;;;;;5053080;28;20387;-41
2021/09/26 09:37:56;;;;;;;5.70;3.75;;;;;;;;;;5052996;28;20053;-41
2021/09/26 09:40:22;;;;;;;6.25;3.75;;;;;;;;;;5052865;28;20025;-40
2021/09/26 09:42:52;;;;;;;4.72;3.65;;;;;;;;;;5053249;28;20028;-40
2021/09/26 09:45:35;;;;;;;6.88;4.80;;;;;;;;;;5052803;28;20025;-41
2021/09/26 09:48:00;;;;;;;7.80;5.18;;;;;;;;;;5052872;28;20033;-44
2021/09/26 09:50:29;;;;;;;9.18;4.95;;;;;;;;;;5052719;28;20017;-40
2021/09/26 09:52:54;;;;;;;7.75;5.15;;;;;;;;;;5052693;28;20111;-40
2021/09/26 09:55:24;;;;;;;8.02;5.05;;;;;;;;;;5051438;28;20048;-40
2021/09/26 09:57:49;;;;;;;7.55;4.82;;;;;;;;;;5052764;28;20041;-41
2021/09/26 10:00:19;;;;;;;18.45;5.32;;;;;;;;;;5052491;28;20040;-42
2021/09/26 10:02:45;;;;;;;6.28;4.30;;;;;;;;;;5052680;28;20025;-41
2021/09/26 10:05:30;;;;;;;4.07;3.53;;;;;;;;;;5052903;28;20090;-41
2021/09/26 10:07:56;;;;;;;7.20;3.42;;;;;;;;;;5052509;28;20461;-41
2021/09/26 10:10:21;;;;;;;6.57;3.45;;;;;;;;;;5052217;28;20051;-41
2021/09/26 10:12:47;;;;;;;4.53;3.50;;;;;;;;;;5052577;28;20098;-40
2021/09/26 10:15:12;;;;;;;7.68;3.80;;;;;;;;;;5052448;28;20035;-41
2021/09/26 10:17:38;;;;;;;6.97;3.72;;;;;;;;;;5052427;28;20033;-40
2021/09/26 10:20:04;;;;;;;8.68;4.85;;;;;;;;;;5052405;28;20035;-40
2021/09/26 10:22:35;;;;;;;6.57;3.75;;;;;;;;;;5052494;28;20025;-41
2021/09/26 10:25:01;;;;;;;7.28;3.17;;;;;;;;;;5052435;28;20369;-41
2021/09/26 10:27:30;;;;;;;6.85;3.90;;;;;;;;;;5052244;28;20063;-40
2021/09/26 10:30:06;;;;;;;8.73;4.38;;;;;;;;;;5052180;28;20083;-40
2021/09/26 10:32:32;;;;;;;3.33;3.03;;;;;;;;;;5067550;28;20040;-40
2021/09/26 10:34:57;;;;;;;6.20;2.88;;;;;;;;;;5052285;28;20418;-41
2021/09/26 10:37:23;;;;;;;4.68;3.25;;;;;;;;;;5052079;28;20029;-41
2021/09/26 10:39:50;;;;;;;6.57;3.08;;;;;;;;;;5055485;28;20021;-41
2021/09/26 10:42:17;;;;;;;6.15;3.10;;;;;;;;;;5056646;28;20056;-41
2021/09/26 10:44:44;;;;;;;3.88;3.13;;;;;;;;;;5054917;28;20090;-41
2021/09/26 10:47:18;;;;;;;3.50;3.17;;;;;;;;;;5056386;28;20098;-41
2021/09/26 10:49:44;;;;;;;7.28;3.38;;;;;;;;;;5056357;28;20032;-41
2021/09/26 10:52:27;;;;;;;4.35;3.50;;;;;;;;;;5056135;28;20074;-40
2021/09/26 10:54:54;;;;;;;4.10;3.08;;;;;;;;;;5056130;28;20028;-41
2021/09/26 10:57:21;;;;;;;4.03;3.40;;;;;;;;;;5055925;28;20586;-41
2021/09/26 10:59:57;;;;;;;6.93;3.17;;;;;;;;;;5055952;28;20464;-41
2021/09/26 11:02:23;;;;;;;7.15;3.28;;;;;;;;;;5056208;28;20117;-40
2021/09/26 11:04:56;;;;;;;4.45;2.97;;;;;;;;;;5056180;28;20047;-40
2021/09/26 11:07:22;;;;;;;6.25;2.85;;;;;;;;;;5056105;28;20387;-41
2021/09/26 11:09:51;;;;;;;3.78;2.92;;;;;;;;;;5055760;28;20044;-40
2021/09/26 11:12:35;;;;;;;3.33;2.47;;;;;;;;;;5055738;28;20033;-41
2021/09/26 11:15:02;;;;;;;9.38;3.17;;;;;;;;;;5071296;28;20448;-41
2021/09/26 11:18:00;;;;;;;3.78;3.13;;;;;;;;;;5055629;28;20482;-40
2021/09/26 11:20:25;;;;;;;6.70;3.30;;;;;;;;;;5043163;28;20049;-40
2021/09/26 11:23:05;;;;;;;6.47;3.17;;;;;;;;;;5055757;28;20375;-41
2021/09/26 11:26:00;;;;;;;8.93;3.70;;;;;;;;;;5055691;28;20105;-40
2021/09/26 11:28:28;;;;;;;4.78;3.72;;;;;;;;;;5054484;28;20040;-40
2021/09/26 11:30:54;;;;;;;4.53;3.15;;;;;;;;;;5055487;28;20464;-40
2021/09/26 11:33:20;;;;;;;5.38;3.08;;;;;;;;;;5055270;28;20029;-40
2021/09/26 11:35:45;;;;;;;6.38;3.83;;;;;;;;;;5055335;28;20024;-40
2021/09/26 11:38:15;;;;;;;5.13;3.10;;;;;;;;;;5055341;28;20029;-41
2021/09/26 11:40:49;;;;;;;5.90;3.30;;;;;;;;;;5055137;28;20083;-41
2021/09/26 11:43:15;;;;;;;4.75;3.33;;;;;;;;;;5055335;28;20494;-40
2021/09/26 11:45:41;;;;;;;5.07;3.85;;;;;;;;;;5055370;28;20040;-40
2021/09/26 11:48:10;;;;;;;4.95;3.80;;;;;;;;;;5055347;28;20056;-40
2021/09/26 11:50:37;;;;;;;3.40;2.90;;;;;;;;;;5069367;28;20025;-40
2021/09/26 11:53:02;;;;;;;4.60;3.85;;;;;;;;;;5055029;28;20033;-41
2021/09/26 11:55:31;;;;;;;3.95;3.53;;;;;;;;;;5055163;28;20017;-40
2021/09/26 11:58:00;;;;;;;4.50;3.80;;;;;;;;;;5054956;28;20033;-40
2021/09/26 12:00:31;;;;;;;3.78;3.38;;;;;;;;;;5054741;28;20017;-40
2021/09/26 12:03:10;;;;;;;7.47;3.47;;;;;;;;;;5054878;28;20407;-41
2021/09/26 12:05:36;;;;;;;5.22;3.78;;;;;;;;;;5054841;28;20048;-40
2021/09/26 12:08:03;;;;;;;5.65;3.30;;;;;;;;;;5054692;28;20407;-41
2021/09/26 12:10:29;;;;;;;4.22;3.30;;;;;;;;;;5054367;28;20075;-40
2021/09/26 12:12:54;;;;;;;5.13;4.13;;;;;;;;;;5054958;28;20036;-40
2021/09/26 12:15:20;;;;;;;4.60;3.53;;;;;;;;;;5054676;28;20029;-41
2021/09/26 12:17:53;;;;;;;6.22;3.20;;;;;;;;;;5054900;28;20032;-41
2021/09/26 12:20:18;;;;;;;;;;;;;;;;;;5054869;28;20017;-40
2021/09/26 12:22:44;;;;;;;6.65;2.85;;;;;;;;;;5054310;28;19999;-41
2021/09/26 12:25:22;;;;;;;4.18;3.38;;;;;;;;;;5054482;28;20036;-40
2021/09/26 12:27:56;;;;;;;6.35;3.55;;;;;;;;;;5054452;28;20033;-41
2021/09/26 12:30:24;;;;;;;6.22;3.72;;;;;;;;;;5054322;28;20079;-41
2021/09/26 12:32:54;;;;;;;7.00;3.95;;;;;;;;;;5054523;28;20021;-40
2021/09/26 12:35:28;;;;;;;5.32;4.15;;;;;;;;;;5054499;28;20444;-41
2021/09/26 12:37:57;;;;;;;6.00;3.80;;;;;;;;;;5054192;28;20028;-40
2021/09/26 12:40:25;;;;;;;4.45;3.88;;;;;;;;;;5054067;28;20096;-41
2021/09/26 12:42:52;;;;;;;6.22;3.92;;;;;;;;;;5054066;28;20480;-41
2021/09/26 12:45:17;;;;;;;4.13;3.65;;;;;;;;;;5054313;28;20017;-40
2021/09/26 12:47:43;;;;;;;4.53;3.42;;;;;;;;;;5052675;28;20044;-40
2021/09/26 12:50:10;;;;;;;9.05;3.75;;;;;;;;;;5053864;28;20478;-40
2021/09/26 12:52:35;;;;;;;5.05;3.97;;;;;;;;;;5053766;28;20484;-40
2021/09/26 12:55:06;;;;;;;5.00;4.00;;;;;;;;;;5054112;28;20027;-40
2021/09/26 12:57:32;;;;;;;4.55;3.72;;;;;;;;;;5053762;28;20032;-41
2021/09/26 13:00:09;;;;;;;4.10;3.70;;;;;;;;;;5053752;28;20059;-41
2021/09/26 13:02:39;;;;;;;7.65;3.75;;;;;;;;;;5053510;28;20155;-41
2021/09/26 13:05:22;;;;;;;6.88;4.28;;;;;;;;;;5053552;28;20043;-41
2021/09/26 13:07:58;;;;;;;3.80;3.40;;;;;;;;;;5053701;28;20115;-41
2021/09/26 13:10:24;;;;;;;5.13;3.85;;;;;;;;;;5053265;28;20412;-41
2021/09/26 13:12:54;;;;;;;5.57;4.18;;;;;;;;;;5053767;28;20387;-40
2021/09/26 13:15:23;;;;;;;5.32;3.25;;;;;;;;;;5053543;28;20074;-41
2021/09/26 13:17:53;;;;;;;5.28;3.75;;;;;;;;;;5053433;28;20028;-41
2021/09/26 13:20:29;;;;;;;4.93;3.65;;;;;;;;;;5053294;28;20490;-40
2021/09/26 13:23:13;;;;;;;4.97;3.85;;;;;;;;;;5053424;28;20040;-40
2021/09/26 13:25:40;;;;;;;4.75;3.35;;;;;;;;;;5053198;28;20021;-42
2021/09/26 13:28:07;;;;;;;3.28;2.92;;;;;;;;;;5053526;28;20020;-41
2021/09/26 13:30:38;;;;;;;4.85;3.90;;;;;;;;;;5052968;28;20036;-41
2021/09/26 13:33:27;;;;;;;4.60;3.45;;;;;;;;;;5053087;28;20486;-41
2021/09/26 13:35:53;;;;;;;8.10;5.55;;;;;;;;;;5053086;28;20017;-40
2021/09/26 13:38:18;;;;;;;11.75;3.58;;;;;;;;;;5053347;28;20025;-41
2021/09/26 13:40:46;;;;;;;6.40;3.83;;;;;;;;;;5052769;28;20029;-41
2021/09/26 13:43:26;;;;;;;8.30;4.05;;;;;;;;;;5052902;28;20028;-41
2021/09/26 13:45:52;;;;;;;4.05;3.65;;;;;;;;;;5052944;28;20048;-41
2021/09/26 13:48:18;;;;;;;5.05;3.50;;;;;;;;;;5052846;28;20039;-40
2021/09/26 13:50:43;;;;;;;4.97;3.95;;;;;;;;;;5052750;28;20029;-40
2021/09/26 13:53:19;;;;;;;5.10;3.67;;;;;;;;;;5052807;28;20430;-40
2021/09/26 13:55:44;;;;;;;4.25;3.70;;;;;;;;;;5052839;28;20021;-41
2021/09/26 13:58:10;;;;;;;6.88;4.15;;;;;;;;;;5052738;28;20029;-40
2021/09/26 14:00:35;;;;;;;4.07;3.67;;;;;;;;;;5052606;28;20035;-41
2021/09/26 14:03:01;;;;;;;4.13;3.67;;;;;;;;;;5052582;28;20021;-41
2021/09/26 14:05:27;;;;;;;5.25;3.97;;;;;;;;;;5052571;28;20064;-41
2021/09/26 14:07:53;;;;;;;6.28;3.63;;;;;;;;;;5052857;28;20437;-42
2021/09/26 14:10:19;;;;;;;6.45;3.20;;;;;;;;;;5052238;28;20044;-45
2021/09/26 14:12:44;;;;;;;3.85;3.47;;;;;;;;;;5052234;28;20496;-41
2021/09/26 14:15:10;;;;;;;5.10;3.67;;;;;;;;;;5052512;28;20472;-41
2021/09/26 14:17:35;;;;;;;5.88;4.13;;;;;;;;;;5052340;28;20468;-40
2021/09/26 14:20:01;;;;;;;3.90;3.40;;;;;;;;;;5052639;28;20025;-40
2021/09/26 14:22:27;;;;;;;6.55;4.32;;;;;;;;;;5067790;28;20013;-41
2021/09/26 14:24:52;;;;;;;4.93;3.80;;;;;;;;;;5067906;28;20025;-40
2021/09/26 14:27:18;;;;;;;5.22;3.85;;;;;;;;;;5052463;28;20464;-41
2021/09/26 14:29:43;;;;;;;7.70;4.40;;;;;;;;;;5052365;28;20021;-40
2021/09/26 14:32:09;;;;;;;5.50;4.43;;;;;;;;;;5052443;28;20116;-41
2021/09/26 14:34:35;;;;;;;10.32;4.25;;;;;;;;;;5052450;28;20416;-40
2021/09/26 14:37:01;;;;;;;4.00;3.60;;;;;;;;;;5052526;28;20064;-41
2021/09/26 14:39:26;;;;;;;4.97;3.83;;;;;;;;;;5052096;28;20025;-40
2021/09/26 14:41:52;;;;;;;3.30;2.92;;;;;;;;;;5052469;28;20053;-40
2021/09/26 14:44:17;;;;;;;5.35;3.70;;;;;;;;;;5052165;28;20025;-40